sensor_id;sensor_type;location;lat;lon;timestamp;temperature;humidity
54272;DHT22;40184;53.362;5.216;2022-09-14T00:01:39;16.90;99.90
54272;DHT22;40184;53.362;5.216;2022-09-14T00:04:09;16.90;99.90
54272;DHT22;40184;53.362;5.216;2022-09-14T00:06:36;16.80;99.90
54272;DHT22;40184;53.362;5.216;2022-09-14T00:09:03;16.80;99.90
54272;DHT22;40184;53.362;5.216;2022-09-14T00:11:32;16.80;99.90
54272;DHT22;40184;53.362;5.216;2022-09-14T00:14:00;16.90;99.90
54272;DHT22;40184;53.362;5.216;2022-09-14T00:16:31;16.80;99.90
54272;DHT22;40184;53.362;5.216;2022-09-14T00:18:59;16.90;99.90
54272;DHT22;40184;53.362;5.216;2022-09-14T00:21:26;16.90;99.90
54272;DHT22;40184;53.362;5.216;2022-09-14T00:23:52;16.80;99.90
54272;DHT22;40184;53.362;5.216;2022-09-14T00:26:20;16.90;99.90
54272;DHT22;40184;53.362;5.216;2022-09-14T00:28:50;16.90;99.90
54272;DHT22;40184;53.362;5.216;2022-09-14T00:31:16;16.90;99.90
54272;DHT22;40184;53.362;5.216;2022-09-14T00:33:43;16.80;99.90
54272;DHT22;40184;53.362;5.216;2022-09-14T00:36:18;16.90;99.90
54272;DHT22;40184;53.362;5.216;2022-09-14T00:38:45;16.90;99.90
54272;DHT22;40184;53.362;5.216;2022-09-14T00:41:14;16.80;99.90
54272;DHT22;40184;53.362;5.216;2022-09-14T00:46:26;16.90;99.90
54272;DHT22;40184;53.362;5.216;2022-09-14T00:48:52;16.90;99.90
54272;DHT22;40184;53.362;5.216;2022-09-14T00:51:20;17.00;99.90
54272;DHT22;40184;53.362;5.216;2022-09-14T00:53:46;17.00;99.90
54272;DHT22;40184;53.362;5.216;2022-09-14T00:56:13;17.00;99.90
54272;DHT22;40184;53.362;5.216;2022-09-14T00:58:40;17.00;99.90
54272;DHT22;40184;53.362;5.216;2022-09-14T01:01:09;17.00;99.90
54272;DHT22;40184;53.362;5.216;2022-09-14T01:03:35;17.00;99.90
54272;DHT22;40184;53.362;5.216;2022-09-14T01:06:14;16.90;99.90
54272;DHT22;40184;53.362;5.216;2022-09-14T01:09:04;17.00;99.90
54272;DHT22;40184;53.362;5.216;2022-09-14T01:12:02;17.00;99.90
54272;DHT22;40184;53.362;5.216;2022-09-14T01:14:38;17.00;99.90
54272;DHT22;40184;53.362;5.216;2022-09-14T01:20:06;17.00;99.90
54272;DHT22;40184;53.362;5.216;2022-09-14T01:25:34;17.00;99.90
54272;DHT22;40184;53.362;5.216;2022-09-14T01:28:09;17.00;99.90
54272;DHT22;40184;53.362;5.216;2022-09-14T01:30:39;17.00;99.90
54272;DHT22;40184;53.362;5.216;2022-09-14T01:33:11;17.00;99.90
54272;DHT22;40184;53.362;5.216;2022-09-14T01:35:56;17.00;99.90
54272;DHT22;40184;53.362;5.216;2022-09-14T01:38:37;17.00;99.90
54272;DHT22;40184;53.362;5.216;2022-09-14T01:41:06;16.90;99.90
54272;DHT22;40184;53.362;5.216;2022-09-14T01:43:37;17.00;99.90
54272;DHT22;40184;53.362;5.216;2022-09-14T01:46:09;16.90;99.90
54272;DHT22;40184;53.362;5.216;2022-09-14T01:51:30;16.90;99.90
54272;DHT22;40184;53.362;5.216;2022-09-14T01:54:06;16.90;99.90
54272;DHT22;40184;53.362;5.216;2022-09-14T01:56:39;16.90;99.90
54272;DHT22;40184;53.362;5.216;2022-09-14T01:59:26;16.90;99.90
54272;DHT22;40184;53.362;5.216;2022-09-14T02:02:13;16.80;99.90
54272;DHT22;40184;53.362;5.216;2022-09-14T02:04:58;16.80;99.90
54272;DHT22;40184;53.362;5.216;2022-09-14T02:07:25;16.80;99.90
54272;DHT22;40184;53.362;5.216;2022-09-14T02:09:53;16.80;99.90
54272;DHT22;40184;53.362;5.216;2022-09-14T02:12:19;16.80;99.90
54272;DHT22;40184;53.362;5.216;2022-09-14T02:14:47;16.90;99.90
54272;DHT22;40184;53.362;5.216;2022-09-14T02:17:15;16.90;99.90
54272;DHT22;40184;53.362;5.216;2022-09-14T02:19:50;16.90;99.90
54272;DHT22;40184;53.362;5.216;2022-09-14T02:22:16;16.90;99.90
54272;DHT22;40184;53.362;5.216;2022-09-14T02:24:42;16.90;99.90
54272;DHT22;40184;53.362;5.216;2022-09-14T02:27:08;16.90;99.90
54272;DHT22;40184;53.362;5.216;2022-09-14T02:29:34;16.90;99.90
54272;DHT22;40184;53.362;5.216;2022-09-14T02:32:10;16.90;99.90
54272;DHT22;40184;53.362;5.216;2022-09-14T02:50:55;16.90;99.90
54272;DHT22;40184;53.362;5.216;2022-09-14T02:56:05;16.80;99.90
54272;DHT22;40184;53.362;5.216;2022-09-14T02:58:35;16.80;99.90
54272;DHT22;40184;53.362;5.216;2022-09-14T03:01:03;16.80;99.90
54272;DHT22;40184;53.362;5.216;2022-09-14T03:03:29;16.80;99.90
54272;DHT22;40184;53.362;5.216;2022-09-14T03:05:55;16.80;99.90
54272;DHT22;40184;53.362;5.216;2022-09-14T03:08:22;16.80;99.90
54272;DHT22;40184;53.362;5.216;2022-09-14T03:10:47;16.70;99.90
54272;DHT22;40184;53.362;5.216;2022-09-14T03:13:13;16.70;99.90
54272;DHT22;40184;53.362;5.216;2022-09-14T03:15:39;16.70;99.90
54272;DHT22;40184;53.362;5.216;2022-09-14T03:18:06;16.70;99.90
54272;DHT22;40184;53.362;5.216;2022-09-14T03:20:32;16.80;99.90
54272;DHT22;40184;53.362;5.216;2022-09-14T03:22:59;16.70;99.90
54272;DHT22;40184;53.362;5.216;2022-09-14T03:25:25;16.70;99.90
54272;DHT22;40184;53.362;5.216;2022-09-14T03:27:54;16.80;99.90
54272;DHT22;40184;53.362;5.216;2022-09-14T03:30:21;16.80;99.90
54272;DHT22;40184;53.362;5.216;2022-09-14T03:32:47;16.80;99.90
54272;DHT22;40184;53.362;5.216;2022-09-14T03:35:14;16.80;99.90
54272;DHT22;40184;53.362;5.216;2022-09-14T03:37:41;16.80;99.90
54272;DHT22;40184;53.362;5.216;2022-09-14T03:40:08;16.80;99.90
54272;DHT22;40184;53.362;5.216;2022-09-14T03:42:34;16.80;99.90
54272;DHT22;40184;53.362;5.216;2022-09-14T03:45:00;16.80;99.90
54272;DHT22;40184;53.362;5.216;2022-09-14T03:47:26;16.80;99.90
54272;DHT22;40184;53.362;5.216;2022-09-14T03:49:52;16.80;99.90
54272;DHT22;40184;53.362;5.216;2022-09-14T03:52:17;16.80;99.90
54272;DHT22;40184;53.362;5.216;2022-09-14T03:54:44;16.80;99.90
54272;DHT22;40184;53.362;5.216;2022-09-14T03:57:10;16.80;99.90
54272;DHT22;40184;53.362;5.216;2022-09-14T03:59:36;16.80;99.90
54272;DHT22;40184;53.362;5.216;2022-09-14T04:02:01;16.80;99.90
54272;DHT22;40184;53.362;5.216;2022-09-14T04:04:28;16.80;99.90
54272;DHT22;40184;53.362;5.216;2022-09-14T04:06:53;16.80;99.90
54272;DHT22;40184;53.362;5.216;2022-09-14T04:09:19;16.70;99.90
54272;DHT22;40184;53.362;5.216;2022-09-14T04:11:45;16.80;99.90
54272;DHT22;40184;53.362;5.216;2022-09-14T04:14:11;16.70;99.90
54272;DHT22;40184;53.362;5.216;2022-09-14T04:16:38;16.70;99.90
54272;DHT22;40184;53.362;5.216;2022-09-14T04:19:04;16.70;99.90
54272;DHT22;40184;53.362;5.216;2022-09-14T04:21:30;16.60;99.90
54272;DHT22;40184;53.362;5.216;2022-09-14T04:23:56;16.70;99.90
54272;DHT22;40184;53.362;5.216;2022-09-14T04:26:25;16.60;99.90
54272;DHT22;40184;53.362;5.216;2022-09-14T04:28:52;16.60;99.90
54272;DHT22;40184;53.362;5.216;2022-09-14T04:31:17;16.50;99.90
54272;DHT22;40184;53.362;5.216;2022-09-14T04:33:44;16.50;99.90
54272;DHT22;40184;53.362;5.216;2022-09-14T04:36:12;16.50;99.90
54272;DHT22;40184;53.362;5.216;2022-09-14T04:38:40;16.50;99.90
54272;DHT22;40184;53.362;5.216;2022-09-14T04:41:17;16.50;99.90
54272;DHT22;40184;53.362;5.216;2022-09-14T04:43:44;16.50;99.90
54272;DHT22;40184;53.362;5.216;2022-09-14T04:46:19;16.40;99.90
54272;DHT22;40184;53.362;5.216;2022-09-14T04:48:45;16.40;99.90
54272;DHT22;40184;53.362;5.216;2022-09-14T04:51:13;16.40;99.90
54272;DHT22;40184;53.362;5.216;2022-09-14T04:53:41;16.40;99.90
54272;DHT22;40184;53.362;5.216;2022-09-14T04:56:09;16.40;99.90
54272;DHT22;40184;53.362;5.216;2022-09-14T04:58:37;16.30;99.90
54272;DHT22;40184;53.362;5.216;2022-09-14T05:01:09;16.30;99.90
54272;DHT22;40184;53.362;5.216;2022-09-14T05:03:36;16.20;99.90
54272;DHT22;40184;53.362;5.216;2022-09-14T05:06:08;16.10;99.90
54272;DHT22;40184;53.362;5.216;2022-09-14T05:08:35;16.10;99.90
54272;DHT22;40184;53.362;5.216;2022-09-14T05:11:04;16.10;99.90
54272;DHT22;40184;53.362;5.216;2022-09-14T05:13:30;16.00;99.90
54272;DHT22;40184;53.362;5.216;2022-09-14T05:16:04;16.00;99.90
54272;DHT22;40184;53.362;5.216;2022-09-14T05:18:30;16.00;99.90
54272;DHT22;40184;53.362;5.216;2022-09-14T05:20:59;16.00;99.90
54272;DHT22;40184;53.362;5.216;2022-09-14T05:23:24;16.00;99.90
54272;DHT22;40184;53.362;5.216;2022-09-14T05:25:53;16.00;99.90
54272;DHT22;40184;53.362;5.216;2022-09-14T05:28:18;15.90;99.90
54272;DHT22;40184;53.362;5.216;2022-09-14T05:30:44;15.90;99.90
54272;DHT22;40184;53.362;5.216;2022-09-14T05:33:10;16.00;99.90
54272;DHT22;40184;53.362;5.216;2022-09-14T05:35:35;16.00;99.90
54272;DHT22;40184;53.362;5.216;2022-09-14T05:38:01;16.00;99.90
54272;DHT22;40184;53.362;5.216;2022-09-14T05:40:26;15.90;99.90
54272;DHT22;40184;53.362;5.216;2022-09-14T05:42:52;15.90;99.90
54272;DHT22;40184;53.362;5.216;2022-09-14T05:45:18;15.90;99.90
54272;DHT22;40184;53.362;5.216;2022-09-14T05:47:43;15.90;99.90
54272;DHT22;40184;53.362;5.216;2022-09-14T05:50:09;15.80;99.90
54272;DHT22;40184;53.362;5.216;2022-09-14T05:52:35;15.80;99.90
54272;DHT22;40184;53.362;5.216;2022-09-14T05:55:03;15.80;99.90
54272;DHT22;40184;53.362;5.216;2022-09-14T05:57:29;15.80;99.90
54272;DHT22;40184;53.362;5.216;2022-09-14T05:59:55;15.80;99.90
54272;DHT22;40184;53.362;5.216;2022-09-14T06:02:20;15.80;99.90
54272;DHT22;40184;53.362;5.216;2022-09-14T06:04:46;15.90;99.90
54272;DHT22;40184;53.362;5.216;2022-09-14T06:07:12;15.80;99.90
54272;DHT22;40184;53.362;5.216;2022-09-14T06:09:37;15.90;99.90
54272;DHT22;40184;53.362;5.216;2022-09-14T06:12:03;15.90;99.90
54272;DHT22;40184;53.362;5.216;2022-09-14T06:14:29;15.90;99.90
54272;DHT22;40184;53.362;5.216;2022-09-14T06:16:54;16.00;99.90
54272;DHT22;40184;53.362;5.216;2022-09-14T06:19:20;16.00;99.90
54272;DHT22;40184;53.362;5.216;2022-09-14T06:21:45;16.00;99.90
54272;DHT22;40184;53.362;5.216;2022-09-14T06:24:11;16.10;99.90
54272;DHT22;40184;53.362;5.216;2022-09-14T06:26:38;16.20;99.90
54272;DHT22;40184;53.362;5.216;2022-09-14T06:29:04;16.20;99.90
54272;DHT22;40184;53.362;5.216;2022-09-14T06:31:30;16.30;99.90
54272;DHT22;40184;53.362;5.216;2022-09-14T06:33:56;16.40;99.90
54272;DHT22;40184;53.362;5.216;2022-09-14T06:36:23;16.50;99.90
54272;DHT22;40184;53.362;5.216;2022-09-14T06:38:50;16.60;99.90
54272;DHT22;40184;53.362;5.216;2022-09-14T06:41:20;16.60;99.90
54272;DHT22;40184;53.362;5.216;2022-09-14T06:43:47;16.70;99.90
54272;DHT22;40184;53.362;5.216;2022-09-14T06:48:48;16.80;99.90
54272;DHT22;40184;53.362;5.216;2022-09-14T06:51:23;16.90;99.90
54272;DHT22;40184;53.362;5.216;2022-09-14T06:53:50;16.90;99.90
54272;DHT22;40184;53.362;5.216;2022-09-14T06:56:17;17.00;99.90
54272;DHT22;40184;53.362;5.216;2022-09-14T06:58:43;17.00;99.90
54272;DHT22;40184;53.362;5.216;2022-09-14T07:01:15;17.10;99.90
54272;DHT22;40184;53.362;5.216;2022-09-14T07:03:42;17.20;99.90
54272;DHT22;40184;53.362;5.216;2022-09-14T07:06:13;17.30;99.90
54272;DHT22;40184;53.362;5.216;2022-09-14T07:08:39;17.30;99.90
54272;DHT22;40184;53.362;5.216;2022-09-14T07:11:07;17.40;99.90
54272;DHT22;40184;53.362;5.216;2022-09-14T07:13:33;17.40;99.90
54272;DHT22;40184;53.362;5.216;2022-09-14T07:15:59;17.50;99.90
54272;DHT22;40184;53.362;5.216;2022-09-14T07:18:25;17.50;99.90
54272;DHT22;40184;53.362;5.216;2022-09-14T07:21:17;17.60;99.90
54272;DHT22;40184;53.362;5.216;2022-09-14T07:23:44;17.70;99.90
54272;DHT22;40184;53.362;5.216;2022-09-14T07:26:19;17.70;99.90
54272;DHT22;40184;53.362;5.216;2022-09-14T07:28:47;17.80;99.90
54272;DHT22;40184;53.362;5.216;2022-09-14T07:31:25;17.80;99.90
54272;DHT22;40184;53.362;5.216;2022-09-14T07:33:53;17.80;99.90
54272;DHT22;40184;53.362;5.216;2022-09-14T07:36:19;17.90;99.90
54272;DHT22;40184;53.362;5.216;2022-09-14T07:38:45;17.90;99.90
54272;DHT22;40184;53.362;5.216;2022-09-14T07:41:11;17.90;99.90
54272;DHT22;40184;53.362;5.216;2022-09-14T07:43:37;17.90;99.90
54272;DHT22;40184;53.362;5.216;2022-09-14T07:46:04;18.00;99.90
54272;DHT22;40184;53.362;5.216;2022-09-14T07:48:31;18.00;99.90
54272;DHT22;40184;53.362;5.216;2022-09-14T07:51:05;18.10;99.90
54272;DHT22;40184;53.362;5.216;2022-09-14T07:53:31;18.10;99.90
54272;DHT22;40184;53.362;5.216;2022-09-14T07:55:59;18.20;99.90
54272;DHT22;40184;53.362;5.216;2022-09-14T07:58:25;18.20;99.90
54272;DHT22;40184;53.362;5.216;2022-09-14T08:00:56;18.30;99.90
54272;DHT22;40184;53.362;5.216;2022-09-14T08:03:21;18.40;99.90
54272;DHT22;40184;53.362;5.216;2022-09-14T08:05:47;18.50;99.90
54272;DHT22;40184;53.362;5.216;2022-09-14T08:08:13;18.60;99.90
54272;DHT22;40184;53.362;5.216;2022-09-14T08:10:38;18.70;99.90
54272;DHT22;40184;53.362;5.216;2022-09-14T08:13:04;18.70;99.90
54272;DHT22;40184;53.362;5.216;2022-09-14T08:15:30;18.80;99.90
54272;DHT22;40184;53.362;5.216;2022-09-14T08:17:56;18.90;99.90
54272;DHT22;40184;53.362;5.216;2022-09-14T08:20:22;18.90;99.90
54272;DHT22;40184;53.362;5.216;2022-09-14T08:22:47;19.00;99.90
54272;DHT22;40184;53.362;5.216;2022-09-14T08:25:13;19.00;99.90
54272;DHT22;40184;53.362;5.216;2022-09-14T08:27:39;19.10;99.90
54272;DHT22;40184;53.362;5.216;2022-09-14T08:30:05;19.00;99.90
54272;DHT22;40184;53.362;5.216;2022-09-14T08:32:31;19.10;99.90
54272;DHT22;40184;53.362;5.216;2022-09-14T08:34:56;19.20;99.90
54272;DHT22;40184;53.362;5.216;2022-09-14T08:37:23;19.30;99.90
54272;DHT22;40184;53.362;5.216;2022-09-14T08:39:48;19.40;99.90
54272;DHT22;40184;53.362;5.216;2022-09-14T08:42:17;19.50;99.90
54272;DHT22;40184;53.362;5.216;2022-09-14T08:44:58;19.60;99.90
54272;DHT22;40184;53.362;5.216;2022-09-14T08:47:28;19.70;99.90
54272;DHT22;40184;53.362;5.216;2022-09-14T08:52:39;19.90;99.90
54272;DHT22;40184;53.362;5.216;2022-09-14T09:00:51;20.10;99.90
54272;DHT22;40184;53.362;5.216;2022-09-14T09:03:57;20.30;99.80
54272;DHT22;40184;53.362;5.216;2022-09-14T09:06:37;20.20;99.70
54272;DHT22;40184;53.362;5.216;2022-09-14T09:09:26;20.30;99.70
54272;DHT22;40184;53.362;5.216;2022-09-14T09:11:55;20.20;99.60
54272;DHT22;40184;53.362;5.216;2022-09-14T09:14:39;20.20;99.70
54272;DHT22;40184;53.362;5.216;2022-09-14T09:17:19;19.90;99.10
54272;DHT22;40184;53.362;5.216;2022-09-14T09:20:23;20.00;99.40
54272;DHT22;40184;53.362;5.216;2022-09-14T09:23:12;19.90;99.90
54272;DHT22;40184;53.362;5.216;2022-09-14T09:25:56;19.90;99.80
54272;DHT22;40184;53.362;5.216;2022-09-14T09:28:25;19.80;99.30
54272;DHT22;40184;53.362;5.216;2022-09-14T09:31:05;19.80;99.40
54272;DHT22;40184;53.362;5.216;2022-09-14T09:33:32;19.80;98.80
54272;DHT22;40184;53.362;5.216;2022-09-14T09:35:58;19.80;99.20
54272;DHT22;40184;53.362;5.216;2022-09-14T09:38:26;19.90;99.30
54272;DHT22;40184;53.362;5.216;2022-09-14T09:44:02;20.00;98.60
54272;DHT22;40184;53.362;5.216;2022-09-14T09:46:32;20.10;99.00
54272;DHT22;40184;53.362;5.216;2022-09-14T09:49:03;20.30;98.80
54272;DHT22;40184;53.362;5.216;2022-09-14T09:51:30;20.40;99.10
54272;DHT22;40184;53.362;5.216;2022-09-14T09:56:32;20.50;98.60
54272;DHT22;40184;53.362;5.216;2022-09-14T09:59:00;20.60;98.80
54272;DHT22;40184;53.362;5.216;2022-09-14T10:01:33;20.60;98.40
54272;DHT22;40184;53.362;5.216;2022-09-14T10:04:16;20.70;98.20
54272;DHT22;40184;53.362;5.216;2022-09-14T10:06:50;20.70;98.30
54272;DHT22;40184;53.362;5.216;2022-09-14T10:09:25;20.70;98.10
54272;DHT22;40184;53.362;5.216;2022-09-14T10:11:57;20.80;98.20
54272;DHT22;40184;53.362;5.216;2022-09-14T10:14:32;20.80;98.00
54272;DHT22;40184;53.362;5.216;2022-09-14T10:17:27;21.00;98.20
54272;DHT22;40184;53.362;5.216;2022-09-14T10:19:54;21.10;98.10
54272;DHT22;40184;53.362;5.216;2022-09-14T10:22:31;21.20;97.90
54272;DHT22;40184;53.362;5.216;2022-09-14T10:25:03;21.30;97.50
54272;DHT22;40184;53.362;5.216;2022-09-14T10:27:56;21.20;97.90
54272;DHT22;40184;53.362;5.216;2022-09-14T10:30:33;21.10;98.10
54272;DHT22;40184;53.362;5.216;2022-09-14T10:33:07;20.80;98.20
54272;DHT22;40184;53.362;5.216;2022-09-14T10:35:56;20.70;98.40
54272;DHT22;40184;53.362;5.216;2022-09-14T10:38:37;20.40;98.20
54272;DHT22;40184;53.362;5.216;2022-09-14T10:41:36;20.40;98.30
54272;DHT22;40184;53.362;5.216;2022-09-14T10:57:29;21.90;97.40
54272;DHT22;40184;53.362;5.216;2022-09-14T11:00:17;22.00;97.10
54272;DHT22;40184;53.362;5.216;2022-09-14T11:05:43;21.60;97.30
54272;DHT22;40184;53.362;5.216;2022-09-14T11:19:16;22.00;97.40
54272;DHT22;40184;53.362;5.216;2022-09-14T11:27:39;21.80;96.60
54272;DHT22;40184;53.362;5.216;2022-09-14T11:30:17;21.60;97.30
54272;DHT22;40184;53.362;5.216;2022-09-14T11:35:41;21.20;97.60
54272;DHT22;40184;53.362;5.216;2022-09-14T11:38:28;21.10;98.00
54272;DHT22;40184;53.362;5.216;2022-09-14T11:43:52;21.50;97.70
54272;DHT22;40184;53.362;5.216;2022-09-14T11:46:21;21.40;97.40
54272;DHT22;40184;53.362;5.216;2022-09-14T11:54:15;21.70;97.90
54272;DHT22;40184;53.362;5.216;2022-09-14T11:56:42;21.70;97.70
54272;DHT22;40184;53.362;5.216;2022-09-14T12:10:26;22.20;96.70
54272;DHT22;40184;53.362;5.216;2022-09-14T12:12:57;22.50;96.70
54272;DHT22;40184;53.362;5.216;2022-09-14T12:15:41;22.50;96.30
54272;DHT22;40184;53.362;5.216;2022-09-14T12:23:31;23.20;95.50
54272;DHT22;40184;53.362;5.216;2022-09-14T13:01:37;26.00;92.40
54272;DHT22;40184;53.362;5.216;2022-09-14T13:04:13;26.00;92.70
54272;DHT22;40184;53.362;5.216;2022-09-14T13:06:44;26.10;92.70
54272;DHT22;40184;53.362;5.216;2022-09-14T13:09:20;26.20;92.50
54272;DHT22;40184;53.362;5.216;2022-09-14T13:11:52;26.10;92.30
54272;DHT22;40184;53.362;5.216;2022-09-14T13:14:18;25.90;92.50
54272;DHT22;40184;53.362;5.216;2022-09-14T13:16:46;25.60;92.60
54272;DHT22;40184;53.362;5.216;2022-09-14T13:19:25;25.10;92.70
54272;DHT22;40184;53.362;5.216;2022-09-14T13:21:53;25.20;93.00
54272;DHT22;40184;53.362;5.216;2022-09-14T13:24:27;25.20;93.00
54272;DHT22;40184;53.362;5.216;2022-09-14T13:26:56;24.90;93.20
54272;DHT22;40184;53.362;5.216;2022-09-14T13:29:23;25.30;93.20
54272;DHT22;40184;53.362;5.216;2022-09-14T13:31:51;25.60;92.90
54272;DHT22;40184;53.362;5.216;2022-09-14T13:34:23;25.80;92.30
54272;DHT22;40184;53.362;5.216;2022-09-14T13:36:49;25.90;92.30
54272;DHT22;40184;53.362;5.216;2022-09-14T13:41:53;25.90;91.80
54272;DHT22;40184;53.362;5.216;2022-09-14T13:44:23;26.00;92.30
54272;DHT22;40184;53.362;5.216;2022-09-14T13:46:50;25.90;92.40
54272;DHT22;40184;53.362;5.216;2022-09-14T13:49:16;25.40;92.30
54272;DHT22;40184;53.362;5.216;2022-09-14T13:51:41;25.10;92.70
54272;DHT22;40184;53.362;5.216;2022-09-14T13:57:16;23.90;93.60
54272;DHT22;40184;53.362;5.216;2022-09-14T14:02:43;22.60;95.40
54272;DHT22;40184;53.362;5.216;2022-09-14T14:05:25;22.20;95.50
54272;DHT22;40184;53.362;5.216;2022-09-14T14:07:53;21.80;95.70
54272;DHT22;40184;53.362;5.216;2022-09-14T14:10:31;21.70;96.20
54272;DHT22;40184;53.362;5.216;2022-09-14T14:13:00;21.60;96.40
54272;DHT22;40184;53.362;5.216;2022-09-14T14:17:53;21.60;96.80
54272;DHT22;40184;53.362;5.216;2022-09-14T14:20:37;21.40;96.80
54272;DHT22;40184;53.362;5.216;2022-09-14T14:25:44;21.20;97.10
54272;DHT22;40184;53.362;5.216;2022-09-14T14:28:21;21.30;97.40
54272;DHT22;40184;53.362;5.216;2022-09-14T14:30:47;21.20;97.20
54272;DHT22;40184;53.362;5.216;2022-09-14T14:33:16;21.10;97.40
54272;DHT22;40184;53.362;5.216;2022-09-14T14:35:46;21.10;97.70
54272;DHT22;40184;53.362;5.216;2022-09-14T14:38:13;21.00;97.40
54272;DHT22;40184;53.362;5.216;2022-09-14T14:40:39;20.80;97.50
54272;DHT22;40184;53.362;5.216;2022-09-14T14:43:05;20.80;97.50
54272;DHT22;40184;53.362;5.216;2022-09-14T14:45:32;20.70;97.70
54272;DHT22;40184;53.362;5.216;2022-09-14T14:48:00;20.80;97.70
54272;DHT22;40184;53.362;5.216;2022-09-14T14:50:28;20.80;97.60
54272;DHT22;40184;53.362;5.216;2022-09-14T14:52:54;20.90;97.40
54272;DHT22;40184;53.362;5.216;2022-09-14T14:55:20;21.10;97.40
54272;DHT22;40184;53.362;5.216;2022-09-14T14:57:47;21.00;97.30
54272;DHT22;40184;53.362;5.216;2022-09-14T15:00:20;20.80;97.40
54272;DHT22;40184;53.362;5.216;2022-09-14T15:02:46;20.70;97.00
54272;DHT22;40184;53.362;5.216;2022-09-14T15:05:12;20.60;97.00
54272;DHT22;40184;53.362;5.216;2022-09-14T15:07:38;20.60;97.00
54272;DHT22;40184;53.362;5.216;2022-09-14T15:10:05;20.50;97.10
54272;DHT22;40184;53.362;5.216;2022-09-14T15:12:32;20.40;97.20
54272;DHT22;40184;53.362;5.216;2022-09-14T15:14:57;20.40;97.40
54272;DHT22;40184;53.362;5.216;2022-09-14T15:17:23;20.30;97.30
54272;DHT22;40184;53.362;5.216;2022-09-14T15:19:49;20.30;97.10
54272;DHT22;40184;53.362;5.216;2022-09-14T15:22:15;20.30;96.60
54272;DHT22;40184;53.362;5.216;2022-09-14T15:24:40;20.10;96.20
54272;DHT22;40184;53.362;5.216;2022-09-14T15:27:06;20.20;96.50
54272;DHT22;40184;53.362;5.216;2022-09-14T15:29:31;20.20;96.40
54272;DHT22;40184;53.362;5.216;2022-09-14T15:31:57;20.20;96.40
54272;DHT22;40184;53.362;5.216;2022-09-14T15:34:23;20.20;96.70
54272;DHT22;40184;53.362;5.216;2022-09-14T15:36:51;20.20;96.80
54272;DHT22;40184;53.362;5.216;2022-09-14T15:39:25;20.20;96.90
54272;DHT22;40184;53.362;5.216;2022-09-14T15:41:52;20.20;97.10
54272;DHT22;40184;53.362;5.216;2022-09-14T15:44:18;20.20;97.10
54272;DHT22;40184;53.362;5.216;2022-09-14T15:46:44;20.20;97.10
54272;DHT22;40184;53.362;5.216;2022-09-14T15:49:14;20.20;97.20
54272;DHT22;40184;53.362;5.216;2022-09-14T15:51:44;20.20;97.40
54272;DHT22;40184;53.362;5.216;2022-09-14T15:54:10;20.20;97.50
54272;DHT22;40184;53.362;5.216;2022-09-14T15:56:36;20.10;97.60
54272;DHT22;40184;53.362;5.216;2022-09-14T15:59:02;20.10;97.80
54272;DHT22;40184;53.362;5.216;2022-09-14T16:01:28;20.00;97.80
54272;DHT22;40184;53.362;5.216;2022-09-14T16:04:03;20.00;98.00
54272;DHT22;40184;53.362;5.216;2022-09-14T16:06:30;20.00;98.20
54272;DHT22;40184;53.362;5.216;2022-09-14T16:08:56;20.00;98.60
54272;DHT22;40184;53.362;5.216;2022-09-14T16:11:24;19.90;98.50
54272;DHT22;40184;53.362;5.216;2022-09-14T16:13:50;19.90;98.80
54272;DHT22;40184;53.362;5.216;2022-09-14T16:16:17;19.80;99.00
54272;DHT22;40184;53.362;5.216;2022-09-14T16:18:43;19.80;99.20
54272;DHT22;40184;53.362;5.216;2022-09-14T16:21:35;19.70;99.30
54272;DHT22;40184;53.362;5.216;2022-09-14T16:24:03;19.60;99.50
54272;DHT22;40184;53.362;5.216;2022-09-14T16:26:31;19.60;99.70
54272;DHT22;40184;53.362;5.216;2022-09-14T16:28:58;19.50;99.70
54272;DHT22;40184;53.362;5.216;2022-09-14T16:31:30;19.50;99.50
54272;DHT22;40184;53.362;5.216;2022-09-14T16:33:59;19.40;99.40
54272;DHT22;40184;53.362;5.216;2022-09-14T16:36:28;19.40;99.60
54272;DHT22;40184;53.362;5.216;2022-09-14T16:39:02;19.40;99.80
54272;DHT22;40184;53.362;5.216;2022-09-14T16:41:28;19.40;99.80
54272;DHT22;40184;53.362;5.216;2022-09-14T16:43:55;19.40;99.90
54272;DHT22;40184;53.362;5.216;2022-09-14T16:46:21;19.30;99.80
54272;DHT22;40184;53.362;5.216;2022-09-14T16:48:47;19.20;99.90
54272;DHT22;40184;53.362;5.216;2022-09-14T16:51:16;19.20;99.90
54272;DHT22;40184;53.362;5.216;2022-09-14T16:53:43;19.20;99.90
54272;DHT22;40184;53.362;5.216;2022-09-14T16:56:17;19.10;99.90
54272;DHT22;40184;53.362;5.216;2022-09-14T16:58:45;19.00;99.90
54272;DHT22;40184;53.362;5.216;2022-09-14T17:01:15;19.00;99.90
54272;DHT22;40184;53.362;5.216;2022-09-14T17:03:41;18.90;99.90
54272;DHT22;40184;53.362;5.216;2022-09-14T17:06:16;18.90;99.90
54272;DHT22;40184;53.362;5.216;2022-09-14T17:08:43;18.80;99.90
54272;DHT22;40184;53.362;5.216;2022-09-14T17:11:09;18.70;99.90
54272;DHT22;40184;53.362;5.216;2022-09-14T17:13:35;18.70;99.90
54272;DHT22;40184;53.362;5.216;2022-09-14T17:16:09;18.60;99.90
54272;DHT22;40184;53.362;5.216;2022-09-14T17:18:36;18.60;99.90
54272;DHT22;40184;53.362;5.216;2022-09-14T17:21:05;18.50;99.90
54272;DHT22;40184;53.362;5.216;2022-09-14T17:23:31;18.50;99.90
54272;DHT22;40184;53.362;5.216;2022-09-14T17:25:57;18.40;99.90
54272;DHT22;40184;53.362;5.216;2022-09-14T17:28:25;18.40;99.90
54272;DHT22;40184;53.362;5.216;2022-09-14T17:30:52;18.30;99.90
54272;DHT22;40184;53.362;5.216;2022-09-14T17:33:18;18.30;99.90
54272;DHT22;40184;53.362;5.216;2022-09-14T17:35:52;18.30;99.90
54272;DHT22;40184;53.362;5.216;2022-09-14T17:38:19;18.30;99.90
54272;DHT22;40184;53.362;5.216;2022-09-14T17:40:46;18.30;99.90
54272;DHT22;40184;53.362;5.216;2022-09-14T17:43:13;18.30;99.90
54272;DHT22;40184;53.362;5.216;2022-09-14T17:45:49;18.20;99.90
54272;DHT22;40184;53.362;5.216;2022-09-14T17:48:15;18.20;99.90
54272;DHT22;40184;53.362;5.216;2022-09-14T17:50:40;18.10;99.90
54272;DHT22;40184;53.362;5.216;2022-09-14T17:53:06;18.10;99.90
54272;DHT22;40184;53.362;5.216;2022-09-14T17:55:32;18.00;99.90
54272;DHT22;40184;53.362;5.216;2022-09-14T17:57:58;18.00;99.90
54272;DHT22;40184;53.362;5.216;2022-09-14T18:00:23;17.90;99.90
54272;DHT22;40184;53.362;5.216;2022-09-14T18:02:50;17.90;99.90
54272;DHT22;40184;53.362;5.216;2022-09-14T18:05:16;17.90;99.90
54272;DHT22;40184;53.362;5.216;2022-09-14T18:07:42;17.80;99.90
54272;DHT22;40184;53.362;5.216;2022-09-14T18:10:07;17.80;99.90
54272;DHT22;40184;53.362;5.216;2022-09-14T18:12:34;17.70;99.90
54272;DHT22;40184;53.362;5.216;2022-09-14T18:15:04;17.70;99.90
54272;DHT22;40184;53.362;5.216;2022-09-14T18:17:30;17.70;99.90
54272;DHT22;40184;53.362;5.216;2022-09-14T18:19:56;17.70;99.90
54272;DHT22;40184;53.362;5.216;2022-09-14T18:22:26;17.70;99.90